createdAt,value
2023-01-17T00:09:52.825Z,0.0
2023-01-17T00:16:19.943Z,0.0
2023-01-17T00:22:46.693Z,0.0
2023-01-17T00:33:08.034Z,0.0
2023-01-17T00:39:34.993Z,0.0
2023-01-17T00:46:01.959Z,0.0
2023-01-17T00:52:26.672Z,0.0
2023-01-17T00:58:51.086Z,0.0
2023-01-17T01:16:32.754Z,0.0
2023-01-17T01:22:56.646Z,0.0
2023-01-17T01:29:19.859Z,0.0
2023-01-17T01:35:43.888Z,0.0
2023-01-17T01:47:21.074Z,0.0
2023-01-17T01:53:45.567Z,0.0
2023-01-17T02:02:18.563Z,0.0
2023-01-17T02:08:43.301Z,0.0
2023-01-17T02:28:26.194Z,0.0
2023-01-17T02:34:51.149Z,0.0
2023-01-17T02:41:16.626Z,0.0
2023-01-17T02:47:40.764Z,0.0
2023-01-17T03:00:47.555Z,0.0
2023-01-17T03:07:11.575Z,0.0
2023-01-17T03:15:50.886Z,0.0
2023-01-17T03:22:13.597Z,0.0
2023-01-17T03:28:36.560Z,0.0
2023-01-17T03:39:13.303Z,0.0
2023-01-17T03:49:25.252Z,0.0
2023-01-17T03:55:49.846Z,0.0
2023-01-17T04:02:13.671Z,0.0
2023-01-17T04:08:37.414Z,0.0
2023-01-17T04:15:00.285Z,0.0
2023-01-17T04:21:22.145Z,0.0
2023-01-17T04:36:03.440Z,0.0
2023-01-17T04:42:26.221Z,0.0
2023-01-17T04:51:33.241Z,0.0
2023-01-17T04:57:55.471Z,0.0
2023-01-17T05:04:18.013Z,0.0
2023-01-17T05:10:41.319Z,0.0
2023-01-17T05:17:04.678Z,0.0
2023-01-17T05:23:29.673Z,0.0
2023-01-17T05:29:56.115Z,0.0
2023-01-17T05:36:21.234Z,0.0
2023-01-17T05:42:45.088Z,0.0
2023-01-17T05:49:10.341Z,0.0
2023-01-17T05:55:33.313Z,0.0
2023-01-17T06:01:56.912Z,0.0
2023-01-17T06:08:19.777Z,0.0
2023-01-17T06:14:43.719Z,0.0
2023-01-17T06:21:07.700Z,0.0
2023-01-17T06:27:32.549Z,0.0
2023-01-17T06:33:56.970Z,0.0
2023-01-17T06:40:20.681Z,0.0
2023-01-17T06:46:44.968Z,0.0
2023-01-17T06:53:10.723Z,0.0
2023-01-17T06:59:35.418Z,0.0
2023-01-17T07:06:00.796Z,0.0
2023-01-17T07:12:26.383Z,0.0
2023-01-17T07:24:18.848Z,0.0
2023-01-17T07:30:46.049Z,0.0
2023-01-17T07:42:58.052Z,0.0
2023-01-17T07:49:38.484Z,1.9741137123745816
2023-01-17T07:56:04.937Z,7.0048494983277605
2023-01-17T08:02:31.407Z,9.22709030100334
2023-01-17T08:09:00.655Z,8.806822742474914
2023-01-17T08:15:34.946Z,6.933745819397997
2023-01-17T08:22:02.841Z,5.865752508361208
2023-01-17T08:28:30.711Z,6.266287625418058
2023-01-17T08:34:59.970Z,9.557290969899661
2023-01-17T08:41:27.347Z,12.34438127090301
2023-01-17T08:47:55.562Z,13.39602006688963
2023-01-17T08:55:46.664Z,13.864280936454856
2023-01-17T09:02:14.595Z,14.504046822742485
2023-01-17T09:08:48.232Z,15.29836120401338
2023-01-17T09:19:24.257Z,16.141270903010028
2023-01-17T09:27:08.776Z,16.305284280936448
2023-01-17T09:33:36.446Z,16.25488294314382
2023-01-17T09:41:06.214Z,16.807826086956535
2023-01-17T09:50:19.392Z,17.128127090300993
2023-01-17T09:56:48.635Z,17.076989966555196
2023-01-17T10:03:18.096Z,17.55120401337794
2023-01-17T10:09:48.143Z,18.48344481605351
2023-01-17T10:16:18.087Z,23.575384615384607
2023-01-17T10:22:47.873Z,22.368595317725752
2023-01-17T10:29:20.053Z,23.182006688963188
2023-01-17T10:35:53.282Z,24.16585284280938
2023-01-17T10:42:22.980Z,21.924481605351183
2023-01-17T10:51:09.627Z,23.168294314381267
2023-01-17T10:57:38.083Z,23.661705685618717
2023-01-17T11:08:48.378Z,37.818729096989955
2023-01-17T11:15:19.107Z,26.6129431438127
2023-01-17T11:21:48.362Z,24.68698996655518
2023-01-17T11:28:17.721Z,20.033846153846163
2023-01-17T11:34:54.517Z,19.338628762541813
2023-01-17T11:47:50.849Z,20.985819397993296
2023-01-17T11:54:19.400Z,32.27635451505015
2023-01-17T12:00:50.067Z,45.450100334448145
2023-01-17T12:07:18.594Z,26.56220735785954
2023-01-17T12:13:45.955Z,21.77742474916388
2023-01-17T12:20:15.004Z,18.55421404682275
2023-01-17T12:29:35.922Z,34.25474916387961
2023-01-17T12:36:34.317Z,45.04384615384616
2023-01-17T12:43:19.213Z,66.83816053511711
2023-01-17T12:49:48.773Z,53.48729096989964
2023-01-17T12:56:17.559Z,43.87418060200669
2023-01-17T13:02:47.751Z,57.70859531772574
2023-01-17T13:09:15.963Z,36.32722408026758
2023-01-17T13:15:44.712Z,28.38742474916389
2023-01-17T13:22:13.373Z,25.51297658862875
2023-01-17T13:28:43.287Z,27.81080267558527
2023-01-17T13:35:13.509Z,44.37100334448158
2023-01-17T13:41:42.544Z,31.398528428093627
2023-01-17T13:54:05.305Z,32.77063545150503
2023-01-17T14:00:34.680Z,29.381036789297667
2023-01-17T14:07:04.109Z,23.258361204013365
2023-01-17T14:13:42.098Z,18.015451505016703
2023-01-17T14:20:11.529Z,17.961806020066895
2023-01-17T14:26:41.084Z,16.375919732441478
2023-01-17T14:33:20.729Z,13.34742474916388
2023-01-17T14:39:50.295Z,9.26953177257525
2023-01-17T14:50:14.607Z,6.3016722408026755
2023-01-17T15:07:01.265Z,4.263712374581935
2023-01-17T15:14:01.313Z,3.5110367892976595
2023-01-17T15:22:34.740Z,2.551939799331105
2023-01-17T15:30:56.731Z,1.4650501672240794
2023-01-17T15:43:26.224Z,0.0
2023-01-17T15:49:52.885Z,0.0
2023-01-17T15:56:18.561Z,0.0
2023-01-17T16:02:44.988Z,0.0
2023-01-17T16:09:18.860Z,0.0
2023-01-17T16:15:43.077Z,0.0
2023-01-17T16:22:08.658Z,0.0
2023-01-17T16:36:11.760Z,0.0
2023-01-17T16:42:38.205Z,0.0
2023-01-17T16:49:05.021Z,0.0
2023-01-17T16:55:34.678Z,0.0
2023-01-17T17:02:03.327Z,0.0
2023-01-17T17:19:37.369Z,0.01725752508361204
2023-01-17T17:26:06.614Z,0.0
2023-01-17T17:32:34.398Z,0.0
2023-01-17T17:43:15.855Z,0.0
2023-01-17T17:55:52.118Z,0.0
2023-01-17T18:02:19.010Z,0.0
2023-01-17T18:08:49.395Z,0.0
2023-01-17T18:15:32.064Z,0.0
2023-01-17T18:22:01.548Z,0.0
2023-01-17T18:30:14.262Z,0.0
2023-01-17T18:37:12.985Z,0.0
2023-01-17T18:43:43.489Z,0.0
2023-01-17T18:50:11.196Z,0.0
2023-01-17T18:56:43.456Z,0.0
2023-01-17T19:06:25.441Z,0.0
2023-01-17T19:12:58.604Z,0.0
2023-01-17T19:27:06.131Z,0.0
2023-01-17T19:33:34.839Z,0.0
2023-01-17T19:40:02.757Z,0.0
2023-01-17T19:46:33.107Z,0.0
2023-01-17T19:53:04.275Z,0.0
2023-01-17T20:01:54.167Z,0.0
2023-01-17T20:08:55.606Z,0.0
2023-01-17T20:15:26.535Z,0.0
2023-01-17T20:28:34.319Z,0.0
2023-01-17T20:35:04.542Z,0.0
2023-01-17T20:41:33.959Z,0.0
2023-01-17T20:48:05.015Z,0.0
2023-01-17T20:54:35.661Z,0.0
2023-01-17T21:01:06.777Z,0.0
2023-01-17T21:08:19.492Z,0.0
2023-01-17T21:17:49.679Z,0.0
2023-01-17T21:26:44.604Z,0.0
2023-01-17T21:33:17.213Z,0.0
2023-01-17T21:42:35.841Z,0.0
2023-01-17T21:59:13.355Z,0.0
2023-01-17T22:12:02.925Z,0.0
2023-01-17T22:18:33.437Z,0.0
2023-01-17T22:25:14.542Z,0.0
2023-01-17T22:31:47.952Z,0.0
2023-01-17T22:44:31.068Z,0.0
2023-01-17T22:53:13.771Z,0.0
2023-01-17T23:01:17.457Z,0.0
2023-01-17T23:15:27.221Z,0.0
2023-01-17T23:27:42.284Z,0.0
2023-01-17T23:35:46.683Z,0.0
2023-01-17T23:46:22.998Z,0.0
2023-01-17T23:55:28.416Z,0.0
